Yampa, CO (80483)

10:07 PM MDT on March 31, 2015 (GMT -0600)
Oak Creek | | Change Station
CLOSE
Current Station
Personal Weather Station
Location: Oak Creek, CO
Elevation: 7444 ft
Nearby Weather Stations

Elev 7444 ft 40.27 °N, 106.96 °W | Updated 8 seconds ago

Partly Cloudy
Partly Cloudy
40.8 °F
Feels Like 41 °F
N
1.0
Wind Variable Wind from SW
Gusts 3.0 mph

Today
High -- | Low -- °F
--% Chance of Precip.
Yesterday
High -- | Low -- °F
Precip. -- in
6:53 AM 7:30 PM
Waxing Gibbous, 90% visible
Pressure 29.92 in
Visibility 10.0 miles
Clouds Scattered Clouds 12000 ft
Windchill 41 °F
Dew Point 28 °F
Humidity 61%
Rainfall 0.00 in
Snow Depth Not available.
UV 0 out of 12
Pollen 10.20 out of 12
Air Quality Not available.
Flu Activity Not available.
METAR KSBS 010335Z AUTO 09006KT 10SM SCT120 12/M06 A2992 RMK AO1 T01161059

More Conditions Fewer Conditions

Pressure 29.92 in
Visibility 10.0 miles
Clouds Scattered Clouds 12000 ft
Windchill 41 °F
Dew Point 28 °F
Humidity 61%
Rainfall 0.00 in
Snow Depth Not available.
UV 0 out of 12
Pollen 10.20 out of 12
Air Quality Not available.
Flu Activity Not available.
METAR KSBS 010335Z AUTO 09006KT 10SM SCT120 12/M06 A2992 RMK AO1 T01161059

More Conditions Fewer Conditions

10-Day Weather Forecast

Almanac

Astronomy

Mar. 31, 2015 Rise Set
Actual Time
Civil Twilight
Nautical Twilight
Astronomical Twilight
Moon
Length of Visible Light
Length of Day
Tomorrow will be .
, % of the Moon is Illuminated

Today's Extremes

State Highs State Lows

Community

WunderPhotos

Upload Photos

1,809,904 photos uploaded!

WunderBlogs® & News

Nearby

Air Quality

  Air Quality AQ Index Pollutant
Not available.

Snow Depth

Station Depth Elevation

Earthquake Activity

City Distance Mag. Time & Date
Minimum magnitude displayed is 2.5.

Coastal Water Temperatures

Place Temperature

Stations

Nearby Weather Stations

Station Location Temp. Windchill Dew Point Humidity Wind Precip. Elev Updated Type